Time;durP1;ratioP1;P1;durP2;ratioP2;P2;SDS_P1;SDS_P2;PMS_P1;PMS_P2;Temp;Humidity;BMP_temperature;BMP_pressure;BME280_temperature;BME280_humidity;BME280_pressure;Samples;Min_cycle;Max_cycle;Signal;HPM_P1;HPM_P2
2023/12/12 00:00:29;;;;;;;12.07;4.90;;;10.90;82.00;;;;;;5054141;28;20477;-64
2023/12/12 00:02:59;;;;;;;13.55;4.45;;;10.90;82.00;;;;;;5051719;28;20341;-64
2023/12/12 00:05:25;;;;;;;9.85;4.38;;;10.90;81.90;;;;;;5043888;28;20108;-65
2023/12/12 00:07:51;;;;;;;11.50;4.07;;;10.90;82.00;;;;;;5052793;28;20082;-64
2023/12/12 00:10:17;;;;;;;10.18;5.03;;;10.90;82.00;;;;;;5053942;28;20021;-65
2023/12/12 00:12:44;;;;;;;10.38;4.03;;;10.90;82.00;;;;;;5052797;28;20128;-64
2023/12/12 00:15:10;;;;;;;9.65;4.25;;;10.90;82.00;;;;;;5053008;28;20040;-64
2023/12/12 00:17:39;;;;;;;9.77;4.18;;;10.90;82.00;;;;;;5053255;28;20063;-65
2023/12/12 00:20:09;;;;;;;8.30;4.10;;;10.90;82.00;;;;;;5058048;28;20093;-64
2023/12/12 00:22:35;;;;;;;10.15;4.25;;;10.80;81.90;;;;;;5056274;28;20037;-65
2023/12/12 00:25:01;;;;;;;14.80;4.50;;;10.80;81.90;;;;;;5056616;28;20067;-65
2023/12/12 00:27:26;;;;;;;10.00;4.57;;;10.80;81.90;;;;;;5056587;28;20022;-64
2023/12/12 00:29:52;;;;;;;13.13;4.88;;;10.80;81.90;;;;;;5056944;28;20523;-65
2023/12/12 00:32:18;;;;;;;10.60;5.20;;;10.80;81.90;;;;;;5057309;28;20162;-65
2023/12/12 00:34:43;;;;;;;10.00;4.68;;;10.80;81.80;;;;;;5055943;28;20033;-64
2023/12/12 00:37:09;;;;;;;11.05;4.50;;;10.80;81.80;;;;;;5057550;28;20029;-64
2023/12/12 00:39:41;;;;;;;11.43;4.90;;;10.80;81.80;;;;;;5057509;28;20029;-65
2023/12/12 00:42:07;;;;;;;9.75;4.20;;;10.80;81.70;;;;;;5056547;28;20055;-64
2023/12/12 00:44:36;;;;;;;13.45;4.65;;;10.90;81.80;;;;;;5056957;28;20104;-64
2023/12/12 00:47:02;;;;;;;13.27;5.10;;;10.90;81.70;;;;;;5056705;28;20025;-64
2023/12/12 00:49:28;;;;;;;9.93;4.75;;;10.90;81.70;;;;;;5055311;28;20052;-64
2023/12/12 00:51:54;;;;;;;9.20;4.03;;;10.90;81.70;;;;;;5057576;28;20059;-64
2023/12/12 00:54:19;;;;;;;8.90;4.30;;;10.90;81.70;;;;;;5056725;28;20354;-64
2023/12/12 00:56:47;;;;;;;9.77;5.13;;;10.90;81.70;;;;;;5057667;28;20044;-64
2023/12/12 00:59:14;;;;;;;11.63;4.85;;;10.80;81.60;;;;;;5056932;28;20032;-64
2023/12/12 01:01:40;;;;;;;8.77;4.45;;;10.80;81.70;;;;;;5055206;28;20039;-64
2023/12/12 01:04:07;;;;;;;10.90;4.25;;;10.80;81.70;;;;;;5049675;28;20099;-64
2023/12/12 01:06:33;;;;;;;10.02;4.38;;;10.80;81.70;;;;;;5057000;28;20025;-64
2023/12/12 01:08:59;;;;;;;7.75;4.60;;;10.80;81.70;;;;;;5056946;28;20112;-65
2023/12/12 01:11:27;;;;;;;10.15;4.25;;;10.80;81.60;;;;;;5055327;28;20021;-65
2023/12/12 01:13:53;;;;;;;9.10;4.00;;;10.80;81.60;;;;;;5055337;28;20056;-65
2023/12/12 01:16:19;;;;;;;11.82;4.07;;;10.80;81.60;;;;;;5056902;28;20063;-65
2023/12/12 01:18:45;;;;;;;10.07;4.10;;;10.80;81.50;;;;;;5056798;28;20021;-65
2023/12/12 01:21:10;;;;;;;11.02;4.63;;;10.80;81.50;;;;;;5055185;28;20060;-65
2023/12/12 01:23:53;;;;;;;9.50;4.35;;;10.70;81.50;;;;;;5055418;28;20442;-65
2023/12/12 01:26:20;;;;;;;9.48;4.18;;;10.80;81.40;;;;;;5056446;28;20120;-65
2023/12/12 01:28:46;;;;;;;11.10;4.13;;;10.70;81.40;;;;;;5056198;28;20025;-65
2023/12/12 01:31:14;;;;;;;10.85;3.97;;;10.70;81.40;;;;;;5054752;28;20029;-65
2023/12/12 01:33:39;;;;;;;10.23;4.35;;;10.70;81.30;;;;;;5055853;28;20411;-64
2023/12/12 01:36:05;;;;;;;11.95;4.93;;;10.60;81.20;;;;;;5056645;28;20119;-65
2023/12/12 01:38:31;;;;;;;11.13;5.10;;;10.60;81.20;;;;;;5056576;28;20064;-64
2023/12/12 01:40:57;;;;;;;10.77;4.63;;;10.60;81.20;;;;;;5056267;28;20043;-64
2023/12/12 01:43:31;;;;;;;10.50;4.70;;;10.60;81.90;;;;;;5055594;28;20037;-65
2023/12/12 01:45:59;;;;;;;9.82;4.43;;;10.50;81.10;;;;;;5056246;28;20029;-65
2023/12/12 01:48:26;;;;;;;12.30;4.65;;;10.50;81.20;;;;;;5056556;28;20420;-65
2023/12/12 01:50:52;;;;;;;8.98;4.32;;;10.40;81.10;;;;;;5056261;28;20358;-64
2023/12/12 01:53:21;;;;;;;9.80;4.38;;;10.40;81.10;;;;;;5054965;28;20029;-65
2023/12/12 01:55:51;;;;;;;12.02;4.80;;;10.40;81.00;;;;;;5059498;28;20452;-64
2023/12/12 01:58:20;;;;;;;9.10;4.50;;;10.40;81.00;;;;;;5067250;28;20021;-64
2023/12/12 02:00:46;;;;;;;8.95;4.43;;;10.30;81.00;;;;;;5054955;28;20037;-64
2023/12/12 02:03:13;;;;;;;12.52;5.57;;;10.30;80.90;;;;;;5054951;28;20033;-64
2023/12/12 02:05:41;;;;;;;10.27;4.72;;;10.30;81.60;;;;;;5060835;28;20079;-64
2023/12/12 02:08:07;;;;;;;10.23;4.97;;;10.30;80.90;;;;;;5076121;28;20357;-65
2023/12/12 02:10:33;;;;;;;11.10;5.05;;;10.20;80.80;;;;;;5061422;28;20025;-65
2023/12/12 02:12:59;;;;;;;9.95;4.72;;;10.20;80.80;;;;;;5068412;28;20350;-64
2023/12/12 02:15:25;;;;;;;10.30;5.05;;;10.20;80.80;;;;;;5062920;28;20036;-64
2023/12/12 02:17:51;;;;;;;12.07;4.85;;;10.10;80.70;;;;;;5075902;28;20453;-65
2023/12/12 02:20:16;;;;;;;10.98;5.00;;;10.10;80.70;;;;;;5065654;28;20349;-65
2023/12/12 02:22:43;;;;;;;11.60;5.25;;;10.10;80.70;;;;;;5068326;28;20061;-64
2023/12/12 02:25:08;;;;;;;12.07;5.50;;;10.10;80.70;;;;;;5055543;28;20078;-64
2023/12/12 02:27:36;;;;;;;10.85;4.80;;;10.00;80.50;;;;;;5073016;28;20013;-64
2023/12/12 02:30:02;;;;;;;11.20;5.30;;;10.00;80.50;;;;;;5068510;28;20112;-64
2023/12/12 02:32:30;;;;;;;11.18;5.55;;;10.00;80.50;;;;;;5061099;28;20021;-64
2023/12/12 02:34:56;;;;;;;10.25;4.78;;;10.00;80.40;;;;;;5053516;28;20377;-65
2023/12/12 02:37:22;;;;;;;10.52;5.22;;;9.90;80.30;;;;;;5055316;28;20032;-64
2023/12/12 02:39:48;;;;;;;13.35;6.10;;;9.90;80.30;;;;;;5054169;28;20044;-65
2023/12/12 02:42:13;;;;;;;11.30;5.43;;;9.90;80.30;;;;;;5054473;28;20078;-65
2023/12/12 02:44:39;;;;;;;10.43;5.35;;;9.90;80.30;;;;;;5054140;28;20025;-65
2023/12/12 02:47:05;;;;;;;11.98;5.63;;;9.90;80.20;;;;;;5055082;28;20083;-65
2023/12/12 02:49:31;;;;;;;9.55;5.55;;;9.80;80.10;;;;;;5054924;28;20029;-64
2023/12/12 02:51:56;;;;;;;9.25;5.65;;;9.80;80.10;;;;;;5054832;28;20041;-65
2023/12/12 02:54:22;;;;;;;13.38;6.22;;;9.80;80.10;;;;;;5052871;28;20041;-64
2023/12/12 02:56:48;;;;;;;12.65;6.75;;;9.80;80.00;;;;;;5055272;28;20029;-65
2023/12/12 02:59:14;;;;;;;12.45;6.57;;;9.80;80.00;;;;;;5054998;28;20079;-65
2023/12/12 03:01:39;;;;;;;12.45;6.28;;;9.70;79.90;;;;;;5054560;28;20408;-65
2023/12/12 03:04:05;;;;;;;12.88;6.53;;;9.70;79.90;;;;;;5054564;28;20452;-65
2023/12/12 03:06:31;;;;;;;12.75;6.90;;;9.70;79.80;;;;;;5052372;28;20441;-64
2023/12/12 03:08:56;;;;;;;11.57;6.13;;;9.70;79.80;;;;;;5053887;28;20025;-64
2023/12/12 03:11:22;;;;;;;14.45;6.60;;;9.60;79.80;;;;;;5053448;28;20033;-65
2023/12/12 03:13:48;;;;;;;13.85;5.97;;;9.60;79.80;;;;;;5053557;28;20029;-64
2023/12/12 03:16:14;;;;;;;11.50;6.70;;;9.60;79.80;;;;;;5056374;28;20076;-64
2023/12/12 03:18:40;;;;;;;12.57;6.22;;;9.50;79.70;;;;;;5045553;28;20025;-64
2023/12/12 03:21:05;;;;;;;13.90;6.80;;;9.50;79.70;;;;;;5054190;28;20055;-64
2023/12/12 03:23:31;;;;;;;14.32;6.43;;;9.50;79.70;;;;;;5033239;28;20040;-64
2023/12/12 03:25:57;;;;;;;11.60;6.45;;;9.50;79.70;;;;;;5047499;28;20525;-64
2023/12/12 03:28:24;;;;;;;12.35;6.78;;;9.40;79.70;;;;;;5050478;28;20027;-64
2023/12/12 03:30:50;;;;;;;11.25;6.15;;;9.40;79.70;;;;;;5054443;28;20032;-64
2023/12/12 03:33:15;;;;;;;9.88;6.05;;;9.40;79.70;;;;;;5053875;28;20035;-64
2023/12/12 03:35:41;;;;;;;11.63;7.03;;;9.40;80.30;;;;;;5054099;28;20024;-64
2023/12/12 03:38:07;;;;;;;13.00;7.10;;;9.30;79.60;;;;;;5051929;28;20373;-64
2023/12/12 03:40:33;;;;;;;13.40;6.45;;;9.30;79.50;;;;;;5053138;28;20033;-64
2023/12/12 03:42:58;;;;;;;12.88;5.85;;;9.30;79.40;;;;;;5054082;28;20029;-64
2023/12/12 03:45:24;;;;;;;12.52;6.82;;;9.30;79.40;;;;;;5053036;28;20035;-64
2023/12/12 03:47:50;;;;;;;10.90;5.93;;;9.30;79.40;;;;;;5051700;28;20024;-65
2023/12/12 03:50:16;;;;;;;13.10;6.18;;;9.30;79.40;;;;;;5053963;28;20025;-64
2023/12/12 03:52:42;;;;;;;12.13;6.60;;;9.20;79.30;;;;;;5035615;28;20361;-64
2023/12/12 03:55:08;;;;;;;12.07;6.10;;;9.20;79.30;;;;;;5053044;28;20045;-64
2023/12/12 03:57:35;;;;;;;11.45;6.35;;;9.20;79.20;;;;;;5053351;28;20411;-64
2023/12/12 04:00:02;;;;;;;11.70;6.78;;;9.20;79.20;;;;;;5053646;28;20060;-64
2023/12/12 04:02:38;;;;;;;12.32;6.97;;;9.20;79.20;;;;;;5052763;28;20037;-64
2023/12/12 04:05:04;;;;;;;11.98;6.13;;;9.10;79.20;;;;;;5053121;28;20040;-64
2023/12/12 04:07:29;;;;;;;12.57;6.78;;;9.10;79.10;;;;;;5051983;28;20032;-64
2023/12/12 04:09:55;;;;;;;10.25;6.20;;;9.10;79.20;;;;;;5063061;28;20025;-65
2023/12/12 04:12:21;;;;;;;15.65;7.90;;;9.10;79.10;;;;;;5064614;28;20036;-64
2023/12/12 04:14:47;;;;;;;12.82;6.75;;;9.10;79.10;;;;;;5066518;28;20031;-64
2023/12/12 04:17:13;;;;;;;12.63;6.88;;;9.00;79.10;;;;;;5059899;28;20464;-64
2023/12/12 04:19:38;;;;;;;14.60;6.55;;;9.00;79.10;;;;;;5073335;28;20358;-64
2023/12/12 04:22:04;;;;;;;10.27;6.30;;;9.00;79.00;;;;;;5063969;28;20082;-65
2023/12/12 04:24:30;;;;;;;14.32;7.20;;;9.00;79.00;;;;;;5053612;28;20032;-65
2023/12/12 04:26:55;;;;;;;13.70;6.90;;;8.90;78.90;;;;;;5069769;28;20032;-64
2023/12/12 04:29:21;;;;;;;11.63;6.13;;;8.90;78.90;;;;;;5061142;28;20078;-64
2023/12/12 04:31:50;;;;;;;11.88;6.75;;;8.90;78.90;;;;;;5069156;28;20014;-64
2023/12/12 04:34:15;;;;;;;11.20;6.55;;;8.90;79.00;;;;;;5053403;28;20311;-64
2023/12/12 04:36:41;;;;;;;12.18;6.57;;;8.90;79.60;;;;;;5052213;28;20109;-65
2023/12/12 04:39:14;;;;;;;12.43;6.20;;;8.90;79.00;;;;;;5051876;28;20021;-65
2023/12/12 04:41:40;;;;;;;14.02;7.10;;;8.90;79.00;;;;;;5052742;28;20024;-65
2023/12/12 04:44:07;;;;;;;12.85;6.93;;;8.90;79.00;;;;;;5053495;28;20040;-64
2023/12/12 04:46:32;;;;;;;11.52;6.40;;;8.90;79.00;;;;;;5052447;28;20354;-64
2023/12/12 04:49:00;;;;;;;10.98;6.72;;;8.90;79.00;;;;;;5051769;28;20032;-64
2023/12/12 04:51:26;;;;;;;14.88;6.75;;;8.90;79.10;;;;;;5053645;28;20340;-65
2023/12/12 04:53:52;;;;;;;13.73;6.70;;;8.90;79.10;;;;;;5052647;28;20032;-64
2023/12/12 04:56:18;;;;;;;12.18;6.53;;;8.90;79.10;;;;;;5053283;28;20025;-64
2023/12/12 04:58:43;;;;;;;13.65;7.00;;;8.90;79.10;;;;;;5051877;28;20064;-64
2023/12/12 05:01:09;;;;;;;16.27;7.35;;;8.90;79.10;;;;;;5053234;28;20021;-64
2023/12/12 05:03:35;;;;;;;10.93;6.47;;;8.90;79.20;;;;;;5054178;28;20429;-65
2023/12/12 05:06:00;;;;;;;11.63;6.25;;;8.90;79.20;;;;;;5055999;28;20033;-64
2023/12/12 05:08:26;;;;;;;12.52;7.05;;;8.90;79.20;;;;;;5056510;28;20103;-64
2023/12/12 05:10:52;;;;;;;15.15;7.13;;;8.90;79.30;;;;;;5056408;28;20033;-64
2023/12/12 05:13:18;;;;;;;12.77;7.38;;;8.90;79.30;;;;;;5056003;28;20098;-64
2023/12/12 05:15:45;;;;;;;15.30;7.32;;;8.90;79.40;;;;;;5056810;28;20055;-65
2023/12/12 05:18:11;;;;;;;14.73;7.50;;;8.90;79.40;;;;;;5055664;28;20025;-64
2023/12/12 05:20:36;;;;;;;15.07;7.60;;;8.90;79.40;;;;;;5055796;28;20365;-65
2023/12/12 05:23:02;;;;;;;13.85;7.78;;;8.90;79.40;;;;;;5055196;28;20029;-64
2023/12/12 05:25:28;;;;;;;13.98;6.95;;;8.90;79.40;;;;;;5055365;28;20512;-64
2023/12/12 05:27:54;;;;;;;12.57;7.28;;;8.90;79.40;;;;;;5039009;28;20017;-64
2023/12/12 05:30:20;;;;;;;16.25;7.07;;;8.90;79.40;;;;;;5055638;28;20388;-65
2023/12/12 05:32:46;;;;;;;17.85;6.82;;;8.90;79.40;;;;;;5055278;28;20029;-64
2023/12/12 05:35:12;;;;;;;10.63;6.63;;;8.80;79.30;;;;;;5056305;28;20059;-64
2023/12/12 05:37:37;;;;;;;11.60;6.43;;;8.80;79.30;;;;;;5035358;28;20454;-65
2023/12/12 05:40:06;;;;;;;14.27;6.57;;;8.80;79.30;;;;;;5050829;28;20497;-65
2023/12/12 05:42:33;;;;;;;10.70;6.65;;;8.80;79.30;;;;;;5056382;28;20043;-65
2023/12/12 05:44:59;;;;;;;12.10;6.70;;;8.70;79.20;;;;;;5055801;28;20025;-65
2023/12/12 05:47:25;;;;;;;16.02;7.00;;;8.70;79.20;;;;;;5038227;28;20025;-64
2023/12/12 05:49:50;;;;;;;12.18;7.30;;;8.70;79.20;;;;;;5056314;28;20086;-64
2023/12/12 05:52:16;;;;;;;12.82;6.97;;;8.70;79.20;;;;;;5054656;28;20035;-65
2023/12/12 05:54:42;;;;;;;11.63;6.57;;;8.60;79.20;;;;;;5038312;28;20061;-64
2023/12/12 05:57:08;;;;;;;12.60;6.60;;;8.60;79.10;;;;;;5055836;28;20047;-65
2023/12/12 05:59:34;;;;;;;11.82;6.40;;;8.60;79.10;;;;;;5056165;28;20024;-64
2023/12/12 06:02:00;;;;;;;13.85;7.00;;;8.60;79.10;;;;;;5053994;28;20385;-64
2023/12/12 06:04:27;;;;;;;13.38;7.70;;;8.60;79.20;;;;;;5055800;28;20020;-64
2023/12/12 06:06:53;;;;;;;13.73;7.88;;;8.50;79.00;;;;;;5054566;28;20029;-64
2023/12/12 06:09:19;;;;;;;15.13;7.70;;;8.50;79.10;;;;;;5054852;28;20120;-64
2023/12/12 06:11:45;;;;;;;12.43;7.18;;;8.50;79.10;;;;;;5060283;28;20029;-65
2023/12/12 06:14:10;;;;;;;10.80;6.60;;;8.50;79.10;;;;;;5058422;28;20028;-65
2023/12/12 06:16:37;;;;;;;12.82;7.07;;;8.40;79.10;;;;;;5055860;28;20050;-64
2023/12/12 06:19:04;;;;;;;16.45;7.97;;;8.50;79.10;;;;;;5054066;28;20044;-64
2023/12/12 06:21:33;;;;;;;12.48;7.25;;;8.50;79.10;;;;;;5054818;28;20021;-63
2023/12/12 06:24:03;;;;;;;13.07;7.28;;;8.50;79.10;;;;;;5053687;28;20076;-64
2023/12/12 06:26:32;;;;;;;12.35;7.20;;;8.50;79.10;;;;;;5053365;28;20098;-65
2023/12/12 06:28:58;;;;;;;13.82;7.68;;;8.50;79.10;;;;;;5053295;28;20458;-68
2023/12/12 06:31:24;;;;;;;13.10;7.20;;;8.50;79.10;;;;;;5053534;28;20032;-64
2023/12/12 06:33:51;;;;;;;16.15;7.95;;;8.50;79.10;;;;;;5053028;28;20036;-64
2023/12/12 06:36:17;;;;;;;17.55;8.15;;;8.50;79.10;;;;;;5053732;28;20082;-65
2023/12/12 06:38:42;;;;;;;13.77;8.45;;;8.60;79.20;;;;;;5036736;28;20056;-64
2023/12/12 06:41:11;;;;;;;16.08;7.35;;;8.60;79.20;;;;;;5053951;28;20041;-64
2023/12/12 06:43:37;;;;;;;13.02;7.85;;;8.60;79.20;;;;;;5053483;28;20025;-64
2023/12/12 06:46:03;;;;;;;17.73;8.77;;;8.60;79.30;;;;;;5055493;28;20025;-65
2023/12/12 06:48:29;;;;;;;18.08;7.30;;;8.60;79.30;;;;;;5054367;28;20091;-64
2023/12/12 06:50:55;;;;;;;15.48;8.38;;;8.70;79.40;;;;;;5055065;28;20035;-64
2023/12/12 06:53:21;;;;;;;18.20;8.05;;;8.70;79.40;;;;;;5054551;28;20021;-64
2023/12/12 06:55:47;;;;;;;13.57;7.75;;;8.70;79.40;;;;;;5053995;28;20037;-64
2023/12/12 06:58:16;;;;;;;15.68;8.30;;;8.70;79.50;;;;;;5054312;28;20029;-64
2023/12/12 07:00:42;;;;;;;17.15;7.85;;;8.80;79.60;;;;;;5054113;28;20037;-64
2023/12/12 07:03:10;;;;;;;17.10;7.90;;;8.80;79.60;;;;;;5053508;28;20033;-64
2023/12/12 07:05:36;;;;;;;14.65;7.78;;;8.80;79.60;;;;;;5054062;28;20025;-64
2023/12/12 07:08:03;;;;;;;17.75;7.80;;;8.80;79.70;;;;;;5055003;28;20021;-65
2023/12/12 07:10:30;;;;;;;18.55;7.97;;;8.80;79.70;;;;;;5055686;28;20035;-64
2023/12/12 07:12:56;;;;;;;16.77;8.00;;;8.90;79.80;;;;;;5054286;28;20028;-65
2023/12/12 07:15:23;;;;;;;21.70;8.27;;;8.90;79.90;;;;;;5036665;28;20345;-64
2023/12/12 07:17:49;;;;;;;21.98;9.48;;;8.90;79.90;;;;;;5054851;28;20044;-64
2023/12/12 07:20:15;;;;;;;23.77;9.13;;;8.90;79.90;;;;;;5054166;28;20032;-65
2023/12/12 07:22:41;;;;;;;19.15;8.05;;;8.90;79.90;;;;;;5054717;28;20449;-65
2023/12/12 07:25:08;;;;;;;21.88;10.40;;;8.90;80.00;;;;;;5036349;28;20511;-64
2023/12/12 07:27:33;;;;;;;19.23;8.35;;;8.90;80.00;;;;;;5057421;28;20044;-64
2023/12/12 07:29:59;;;;;;;19.50;8.82;;;9.00;80.10;;;;;;5054904;28;20017;-64
2023/12/12 07:32:26;;;;;;;19.92;8.70;;;9.00;80.10;;;;;;5053793;28;20024;-64
2023/12/12 07:34:53;;;;;;;23.77;8.75;;;9.00;80.00;;;;;;5053654;28;20043;-64
2023/12/12 07:37:19;;;;;;;18.60;9.40;;;9.10;80.10;;;;;;5054313;28;20339;-65
2023/12/12 07:39:45;;;;;;;23.20;8.70;;;9.10;80.10;;;;;;5053097;28;20120;-65
2023/12/12 07:42:11;;;;;;;20.42;9.27;;;9.10;80.20;;;;;;5053949;28;20021;-64
2023/12/12 07:44:36;;;;;;;25.13;9.50;;;9.10;80.20;;;;;;5053159;28;20098;-65
2023/12/12 07:47:02;;;;;;;24.00;9.25;;;9.10;80.20;;;;;;5053563;28;20021;-64
2023/12/12 07:49:28;;;;;;;19.95;8.55;;;9.20;80.40;;;;;;5054307;28;20040;-62
2023/12/12 07:51:54;;;;;;;20.42;9.70;;;9.20;80.40;;;;;;5036572;28;20025;-61
2023/12/12 07:54:20;;;;;;;18.40;8.52;;;9.20;80.40;;;;;;5053117;28;20476;-61
2023/12/12 07:56:46;;;;;;;19.77;8.52;;;9.20;80.40;;;;;;5053774;28;20025;-64
2023/12/12 07:59:12;;;;;;;22.20;9.13;;;9.30;80.40;;;;;;5054105;28;20049;-64
2023/12/12 08:01:39;;;;;;;22.40;9.43;;;9.30;80.50;;;;;;5054621;28;20024;-64
2023/12/12 08:04:05;;;;;;;17.00;8.50;;;9.30;80.50;;;;;;5054077;28;20033;-64
2023/12/12 08:06:32;;;;;;;17.23;8.15;;;9.30;80.50;;;;;;5052262;28;20103;-64
2023/12/12 08:08:59;;;;;;;22.88;9.30;;;9.30;80.60;;;;;;5053161;28;20025;-65
2023/12/12 08:11:27;;;;;;;22.33;9.23;;;9.30;80.60;;;;;;5053006;28;20021;-63
2023/12/12 08:13:56;;;;;;;20.98;8.60;;;9.30;80.60;;;;;;5052548;28;20416;-64
2023/12/12 08:16:23;;;;;;;20.27;8.55;;;9.40;80.70;;;;;;5038784;28;20036;-65
2023/12/12 08:18:49;;;;;;;19.27;8.98;;;9.40;80.70;;;;;;5054390;28;20397;-65
2023/12/12 08:21:17;;;;;;;23.10;9.02;;;9.50;81.40;;;;;;5052922;28;20074;-65
2023/12/12 08:23:43;;;;;;;21.42;8.25;;;9.50;80.80;;;;;;5054322;28;20036;-64
2023/12/12 08:26:12;;;;;;;19.23;7.35;;;9.50;80.80;;;;;;5051421;28;20374;-63
2023/12/12 08:28:38;;;;;;;20.52;7.40;;;9.50;80.80;;;;;;5057211;28;20333;-61
2023/12/12 08:31:05;;;;;;;18.73;8.07;;;9.60;80.90;;;;;;5059173;28;20033;-64
2023/12/12 08:33:31;;;;;;;21.42;8.75;;;9.60;81.00;;;;;;5053957;28;20094;-64
2023/12/12 08:35:57;;;;;;;21.88;7.72;;;9.60;81.60;;;;;;5053865;28;20048;-64
2023/12/12 08:38:23;;;;;;;23.02;8.38;;;9.60;81.00;;;;;;5051822;28;20032;-64
2023/12/12 08:40:49;;;;;;;16.27;6.75;;;9.60;81.10;;;;;;5057298;28;20025;-64
2023/12/12 08:43:16;;;;;;;16.70;7.18;;;9.60;81.10;;;;;;5056041;28;20033;-64
2023/12/12 08:45:44;;;;;;;18.35;7.60;;;9.70;81.10;;;;;;5058000;28;20032;-64
2023/12/12 08:48:10;;;;;;;15.75;7.57;;;9.70;81.20;;;;;;5057713;28;20021;-64
2023/12/12 08:50:36;;;;;;;22.90;8.30;;;9.70;81.30;;;;;;5056892;28;20021;-64
2023/12/12 08:53:03;;;;;;;16.55;6.78;;;9.70;81.30;;;;;;5032970;28;20128;-64
2023/12/12 08:55:29;;;;;;;21.20;7.90;;;9.70;81.30;;;;;;5053915;28;20025;-64
2023/12/12 08:57:55;;;;;;;20.08;8.38;;;9.80;81.40;;;;;;5057852;28;20043;-64
2023/12/12 09:00:21;;;;;;;17.55;7.47;;;9.80;81.40;;;;;;5056836;28;20112;-64
2023/12/12 09:02:47;;;;;;;17.55;7.55;;;9.80;81.40;;;;;;5055595;28;20033;-64
2023/12/12 09:05:13;;;;;;;20.33;8.45;;;9.80;81.50;;;;;;5057644;28;20033;-64
2023/12/12 09:07:40;;;;;;;23.55;8.82;;;9.80;81.50;;;;;;5057876;28;20029;-64
2023/12/12 09:10:07;;;;;;;16.55;8.50;;;9.90;81.50;;;;;;5058017;28;20021;-64
2023/12/12 09:12:34;;;;;;;22.08;8.30;;;9.90;81.60;;;;;;5056403;28;20356;-63
2023/12/12 09:14:59;;;;;;;19.98;8.55;;;9.90;81.60;;;;;;5056921;28;20040;-64
2023/12/12 09:17:25;;;;;;;18.13;7.88;;;9.90;81.60;;;;;;5056250;28;20040;-64
2023/12/12 09:19:51;;;;;;;19.08;7.57;;;9.90;81.60;;;;;;5035626;28;20087;-64
2023/12/12 09:22:17;;;;;;;19.95;7.70;;;10.00;81.70;;;;;;5049883;28;20025;-64
2023/12/12 09:24:42;;;;;;;16.83;7.03;;;10.00;81.70;;;;;;5052112;28;20485;-64
2023/12/12 09:27:08;;;;;;;19.42;7.50;;;10.10;81.70;;;;;;5047331;28;20128;-64
2023/12/12 09:29:34;;;;;;;21.55;9.07;;;10.10;81.70;;;;;;5056553;28;20460;-64
2023/12/12 09:32:00;;;;;;;15.85;6.93;;;10.10;81.70;;;;;;5054440;28;20017;-64
2023/12/12 09:34:25;;;;;;;16.35;7.90;;;10.20;81.70;;;;;;5049286;28;20022;-65
2023/12/12 09:36:51;;;;;;;16.13;7.38;;;10.20;81.70;;;;;;5038264;28;20025;-64
2023/12/12 09:39:17;;;;;;;14.90;6.80;;;10.20;81.80;;;;;;5043989;28;20094;-64
2023/12/12 09:41:49;;;;;;;18.45;7.78;;;10.20;81.70;;;;;;5038214;28;20402;-64
2023/12/12 09:44:17;;;;;;;21.55;6.75;;;10.20;81.70;;;;;;5041408;28;20365;-65
2023/12/12 09:46:43;;;;;;;15.18;6.47;;;10.20;81.70;;;;;;5043131;28;20335;-64
2023/12/12 09:49:14;;;;;;;15.07;6.72;;;10.20;81.70;;;;;;5041657;28;20087;-64
2023/12/12 09:51:44;;;;;;;19.52;6.68;;;10.30;81.80;;;;;;5038409;28;20498;-65
2023/12/12 09:54:14;;;;;;;19.95;7.53;;;10.30;81.80;;;;;;5054252;28;20059;-64
2023/12/12 09:56:40;;;;;;;18.08;7.90;;;10.30;81.80;;;;;;5053718;28;20354;-67
2023/12/12 09:59:06;;;;;;;20.55;6.57;;;10.40;81.90;;;;;;5027459;28;20028;-62
2023/12/12 10:01:35;;;;;;;23.83;6.90;;;10.40;82.50;;;;;;5054975;28;20044;-64
2023/12/12 10:04:06;;;;;;;16.17;6.63;;;10.40;81.90;;;;;;5055908;28;20059;-64
2023/12/12 10:06:41;;;;;;;17.23;6.38;;;10.50;81.80;;;;;;5053613;28;20365;-64
2023/12/12 10:09:10;;;;;;;19.55;7.50;;;10.60;81.80;;;;;;5040239;28;20357;-65
2023/12/12 10:11:36;;;;;;;17.60;6.95;;;10.60;81.70;;;;;;5055063;28;20040;-64
2023/12/12 10:14:01;;;;;;;20.52;6.63;;;10.70;81.60;;;;;;5054871;28;20029;-64
2023/12/12 10:16:30;;;;;;;16.95;6.38;;;10.70;81.60;;;;;;5054372;28;20025;-64
2023/12/12 10:19:01;;;;;;;14.10;6.25;;;10.70;81.60;;;;;;5052777;28;20044;-65
2023/12/12 10:21:27;;;;;;;23.00;6.68;;;10.80;81.70;;;;;;5037320;28;20032;-65
2023/12/12 10:23:54;;;;;;;16.00;6.15;;;10.80;81.70;;;;;;5054929;28;20032;-65
2023/12/12 10:26:31;;;;;;;21.90;7.15;;;10.80;81.70;;;;;;5053488;28;20049;-65
2023/12/12 10:28:58;;;;;;;18.60;6.32;;;10.80;81.60;;;;;;5055335;28;20029;-65
2023/12/12 10:31:24;;;;;;;18.77;6.68;;;10.90;81.60;;;;;;5037455;28;20090;-65
2023/12/12 10:33:51;;;;;;;16.90;6.18;;;10.90;81.60;;;;;;5054850;28;20033;-65
2023/12/12 10:36:16;;;;;;;17.23;6.78;;;10.90;81.70;;;;;;5053833;28;20342;-62
2023/12/12 10:38:44;;;;;;;16.35;6.70;;;11.00;81.70;;;;;;5051951;28;20465;-63
2023/12/12 10:41:22;;;;;;;18.98;7.47;;;11.00;81.60;;;;;;5054078;28;20539;-62
2023/12/12 10:43:48;;;;;;;20.52;7.60;;;11.10;81.50;;;;;;5052069;28;20067;-62
2023/12/12 10:46:15;;;;;;;15.48;6.28;;;11.20;81.40;;;;;;5044447;28;20040;-62
2023/12/12 10:48:43;;;;;;;16.02;5.97;;;11.30;81.30;;;;;;5069501;28;20115;-62
2023/12/12 10:51:14;;;;;;;18.67;6.18;;;11.40;81.20;;;;;;5074480;28;20089;-62
2023/12/12 10:53:42;;;;;;;14.18;5.60;;;11.50;81.00;;;;;;5074327;28;20028;-62
2023/12/12 10:56:09;;;;;;;20.80;6.47;;;11.50;80.90;;;;;;5073605;28;20086;-62
2023/12/12 10:58:37;;;;;;;18.65;5.95;;;11.50;80.90;;;;;;5068107;28;20029;-62
2023/12/12 11:01:04;;;;;;;15.00;5.55;;;11.50;81.00;;;;;;5075062;28;20068;-62
2023/12/12 11:03:31;;;;;;;18.58;5.57;;;11.50;81.00;;;;;;5074113;28;20025;-62
2023/12/12 11:05:59;;;;;;;18.00;5.75;;;11.50;81.00;;;;;;5075617;28;20409;-62
2023/12/12 11:08:27;;;;;;;15.35;6.53;;;11.50;81.00;;;;;;5070179;28;20016;-62
2023/12/12 11:10:54;;;;;;;15.27;4.95;;;11.50;81.00;;;;;;5062625;28;20021;-64
2023/12/12 11:13:24;;;;;;;24.42;5.65;;;11.50;81.00;;;;;;5067901;28;20029;-63
2023/12/12 11:15:52;;;;;;;17.40;5.75;;;11.50;81.00;;;;;;5066551;28;20033;-63
2023/12/12 11:18:20;;;;;;;17.75;6.35;;;11.60;80.90;;;;;;5072119;28;20085;-63
2023/12/12 11:20:47;;;;;;;14.00;5.55;;;11.60;80.90;;;;;;5067912;28;20025;-65
2023/12/12 11:23:45;;;;;;;14.77;5.90;;;11.70;80.90;;;;;;5059601;28;20033;-63
2023/12/12 11:26:15;;;;;;;12.95;5.40;;;11.70;80.80;;;;;;5064679;28;20461;-62
2023/12/12 11:28:42;;;;;;;18.38;5.40;;;11.70;80.70;;;;;;5065310;28;20056;-63
2023/12/12 11:31:08;;;;;;;15.80;5.43;;;11.80;80.60;;;;;;5067747;28;20055;-63
2023/12/12 11:34:04;;;;;;;14.95;5.75;;;11.80;80.60;;;;;;5053703;28;20177;-63
2023/12/12 11:36:54;;;;;;;15.43;5.25;;;11.90;80.50;;;;;;5055986;28;20045;-64
2023/12/12 11:39:23;;;;;;;18.60;5.68;;;12.00;80.40;;;;;;5050208;28;20059;-63
2023/12/12 11:41:52;;;;;;;16.05;5.25;;;12.10;80.40;;;;;;5054092;28;20362;-63
2023/12/12 11:44:20;;;;;;;17.23;5.70;;;12.10;80.10;;;;;;5051671;28;20072;-63
2023/12/12 11:46:46;;;;;;;17.20;5.22;;;12.10;80.00;;;;;;5052425;28;20029;-63
2023/12/12 11:49:23;;;;;;;14.60;5.55;;;12.10;80.10;;;;;;5055449;28;20472;-63
2023/12/12 11:51:50;;;;;;;14.73;5.15;;;12.10;80.00;;;;;;5056699;28;20036;-63
2023/12/12 11:54:21;;;;;;;13.20;4.30;;;12.10;80.10;;;;;;5066407;28;20050;-62
2023/12/12 11:56:47;;;;;;;16.80;5.05;;;12.10;80.10;;;;;;5062610;28;20025;-63
2023/12/12 11:59:21;;;;;;;13.75;4.68;;;12.10;80.10;;;;;;5065434;28;20029;-63
2023/12/12 12:01:47;;;;;;;16.42;5.47;;;12.10;80.10;;;;;;5073719;28;20115;-63
2023/12/12 12:04:13;;;;;;;14.85;4.50;;;12.10;80.10;;;;;;5074600;28;20115;-63
2023/12/12 12:06:39;;;;;;;13.93;4.82;;;12.10;80.10;;;;;;5058827;28;20349;-63
2023/12/12 12:09:07;;;;;;;18.95;4.90;;;12.10;80.10;;;;;;5062488;28;20056;-63
2023/12/12 12:11:39;;;;;;;16.70;4.25;;;12.10;80.00;;;;;;5074497;28;20081;-63
2023/12/12 12:14:06;;;;;;;12.23;3.85;;;12.10;80.00;;;;;;5050892;28;20044;-63
2023/12/12 12:16:32;;;;;;;12.40;4.47;;;12.10;79.90;;;;;;5053910;28;20064;-63
2023/12/12 12:18:58;;;;;;;12.07;4.38;;;12.10;80.00;;;;;;5065859;28;20036;-62
2023/12/12 12:21:25;;;;;;;14.07;4.22;;;12.10;80.00;;;;;;5063242;28;20020;-63
2023/12/12 12:23:54;;;;;;;15.90;4.63;;;12.10;80.00;;;;;;5069055;28;20050;-63
2023/12/12 12:26:20;;;;;;;12.32;3.67;;;12.10;80.00;;;;;;5068834;28;20041;-63
2023/12/12 12:28:47;;;;;;;16.85;4.68;;;12.10;80.00;;;;;;5064360;28;20032;-64
2023/12/12 12:31:13;;;;;;;12.77;4.00;;;12.20;80.00;;;;;;5058468;28;20422;-63
2023/12/12 12:33:39;;;;;;;12.55;4.30;;;12.20;79.90;;;;;;5035918;28;20021;-64
2023/12/12 12:36:05;;;;;;;13.32;4.72;;;12.30;79.80;;;;;;5056334;28;20028;-64
2023/12/12 12:38:31;;;;;;;15.77;4.85;;;12.30;79.70;;;;;;5054264;28;20042;-64
2023/12/12 12:40:58;;;;;;;11.05;3.95;;;12.30;79.70;;;;;;5056560;28;20029;-64